Time;durP1;ratioP1;P1;durP2;ratioP2;P2;SDS_P1;SDS_P2;PMS_P1;PMS_P2;Temp;Humidity;BMP_temperature;BMP_pressure;BME280_temperature;BME280_humidity;BME280_pressure;Samples;Min_cycle;Max_cycle;Signal;HPM_P1;HPM_P2
2022/12/08 00:01:15;;;;;;;10.63;8.90;;;4.70;99.90;;;;;;4953232;29;20434;-79
2022/12/08 00:03:41;;;;;;;12.48;10.10;;;4.70;99.90;;;;;;4950593;28;20028;-79
2022/12/08 00:11:46;;;;;;;13.80;9.75;;;4.70;99.90;;;;;;4954527;29;20109;-79
2022/12/08 00:14:12;;;;;;;10.88;8.88;;;4.70;99.90;;;;;;4949391;28;20475;-79
2022/12/08 00:16:38;;;;;;;11.85;9.43;;;4.70;99.90;;;;;;4934088;29;20030;-79
2022/12/08 00:19:03;;;;;;;15.38;9.75;;;4.70;99.90;;;;;;4947837;29;20482;-79
2022/12/08 00:21:29;;;;;;;10.68;8.85;;;4.70;99.90;;;;;;4954225;29;20023;-79
2022/12/08 00:23:55;;;;;;;11.93;8.88;;;4.70;99.90;;;;;;4954182;29;20486;-79
2022/12/08 00:26:21;;;;;;;9.85;8.40;;;4.70;99.90;;;;;;4954179;29;20075;-79
2022/12/08 00:28:47;;;;;;;11.57;8.77;;;4.60;99.90;;;;;;4935034;29;20039;-79
2022/12/08 00:31:13;;;;;;;9.70;7.55;;;4.60;99.90;;;;;;4935103;29;20483;-79
2022/12/08 00:33:39;;;;;;;9.63;7.82;;;4.50;99.90;;;;;;4946741;29;20037;-79
2022/12/08 00:36:06;;;;;;;9.15;7.85;;;4.50;99.90;;;;;;4933823;29;20038;-78
2022/12/08 00:38:32;;;;;;;9.25;7.38;;;4.50;99.90;;;;;;4943471;29;20070;-79
2022/12/08 00:40:58;;;;;;;10.55;8.02;;;4.50;99.90;;;;;;4954029;28;20132;-79
2022/12/08 00:43:24;;;;;;;11.75;8.07;;;4.50;99.90;;;;;;4953798;28;20035;-80
2022/12/08 00:45:50;;;;;;;10.93;8.10;;;4.50;99.90;;;;;;4952925;29;20031;-79
2022/12/08 00:48:15;;;;;;;11.30;7.78;;;4.60;99.90;;;;;;4949993;29;20035;-79
2022/12/08 00:50:44;;;;;;;9.95;6.60;;;4.60;99.90;;;;;;4948789;28;20042;-79
2022/12/08 00:53:10;;;;;;;10.57;7.70;;;4.60;99.90;;;;;;4959341;28;20030;-78
2022/12/08 00:55:35;;;;;;;8.73;6.68;;;4.60;99.90;;;;;;4961696;28;20028;-80
2022/12/08 00:58:01;;;;;;;227.25;139.77;;;4.70;99.90;;;;;;4957543;28;20030;-79
2022/12/08 01:00:27;;;;;;;18.08;13.55;;;4.70;99.90;;;;;;4957844;28;20030;-79
2022/12/08 01:02:53;;;;;;;11.25;9.05;;;4.70;99.90;;;;;;4961441;28;20093;-76
2022/12/08 01:05:18;;;;;;;8.07;7.25;;;4.70;99.90;;;;;;4967471;28;20073;-77
2022/12/08 01:07:44;;;;;;;8.35;7.13;;;4.70;99.90;;;;;;4958172;28;20090;-77
2022/12/08 01:10:10;;;;;;;9.13;6.50;;;4.70;99.90;;;;;;4955398;28;20038;-77
2022/12/08 01:12:36;;;;;;;8.75;6.65;;;4.70;99.90;;;;;;4957090;28;20023;-77
2022/12/08 01:15:02;;;;;;;7.45;6.20;;;4.70;99.90;;;;;;4953101;28;20071;-76
2022/12/08 01:17:28;;;;;;;6.85;5.72;;;4.60;99.90;;;;;;4954254;28;20028;-77
2022/12/08 01:19:53;;;;;;;7.65;6.07;;;4.60;99.90;;;;;;4944267;29;20454;-76
2022/12/08 01:22:19;;;;;;;7.25;5.53;;;4.70;99.90;;;;;;4950835;29;20034;-76
2022/12/08 01:24:45;;;;;;;7.80;5.63;;;4.60;99.90;;;;;;4947517;29;20034;-76
2022/12/08 01:27:10;;;;;;;6.63;5.22;;;4.60;99.90;;;;;;4951280;29;20035;-77
2022/12/08 01:29:36;;;;;;;7.88;6.05;;;4.60;99.90;;;;;;4945574;29;20087;-77
2022/12/08 01:32:02;;;;;;;9.25;5.20;;;4.60;99.90;;;;;;4945129;29;20030;-77
2022/12/08 01:34:27;;;;;;;6.38;5.53;;;4.60;99.90;;;;;;4946584;29;20507;-77
2022/12/08 01:36:56;;;;;;;10.60;5.60;;;4.60;99.90;;;;;;4952957;29;20070;-77
2022/12/08 01:39:22;;;;;;;7.40;5.95;;;4.50;99.90;;;;;;4946161;29;20422;-77
2022/12/08 01:41:48;;;;;;;5.50;4.93;;;4.50;99.90;;;;;;4949044;29;20048;-77
2022/12/08 01:44:13;;;;;;;7.28;5.68;;;4.50;99.90;;;;;;4953251;29;20110;-77
2022/12/08 01:46:44;;;;;;;8.40;5.78;;;4.50;99.90;;;;;;4944732;29;20031;-76
2022/12/08 01:49:29;;;;;;;8.83;5.40;;;4.40;99.90;;;;;;4944886;29;20389;-76
2022/12/08 01:52:04;;;;;;;6.40;4.82;;;4.40;99.90;;;;;;4945612;29;20266;-76
2022/12/08 01:54:35;;;;;;;8.98;5.32;;;4.40;99.90;;;;;;4941081;29;20107;-76
2022/12/08 01:57:46;;;;;;;7.95;5.30;;;4.40;99.90;;;;;;4948174;29;20111;-77
2022/12/08 02:00:14;;;;;;;4.72;4.32;;;4.50;99.90;;;;;;4949368;29;20371;-77
2022/12/08 02:02:53;;;;;;;5.13;4.68;;;4.40;99.90;;;;;;4943581;29;20031;-76
2022/12/08 02:05:23;;;;;;;6.10;4.53;;;4.40;99.90;;;;;;4945680;29;20495;-77
2022/12/08 02:07:50;;;;;;;6.38;4.57;;;4.40;99.90;;;;;;4944964;29;20125;-76
2022/12/08 02:10:19;;;;;;;4.32;4.03;;;4.40;99.90;;;;;;4944353;29;20038;-76
2022/12/08 02:12:45;;;;;;;6.95;4.15;;;4.40;99.90;;;;;;4946029;28;20482;-76
2022/12/08 02:15:12;;;;;;;4.80;4.40;;;4.40;99.90;;;;;;4952612;29;20505;-77
2022/12/08 02:18:33;;;;;;;5.32;4.82;;;4.30;99.90;;;;;;4947702;28;20512;-76
2022/12/08 02:21:32;;;;;;;4.60;4.20;;;4.30;99.90;;;;;;4887984;29;20040;-76
2022/12/08 02:24:10;;;;;;;4.80;4.40;;;4.30;99.90;;;;;;4956734;28;20045;-76
2022/12/08 02:27:13;;;;;;;4.55;4.15;;;4.30;99.90;;;;;;4945247;28;20031;-77
2022/12/08 02:29:53;;;;;;;6.90;4.25;;;4.30;99.90;;;;;;4946688;29;20038;-77
2022/12/08 02:32:48;;;;;;;4.20;3.90;;;4.30;99.90;;;;;;4944809;29;20031;-76
2022/12/08 02:35:26;;;;;;;5.40;4.18;;;4.30;99.90;;;;;;4878868;29;20045;-76
2022/12/08 02:38:10;;;;;;;4.25;3.85;;;4.30;99.90;;;;;;4946026;29;20086;-76
2022/12/08 02:40:43;;;;;;;5.95;4.22;;;4.30;99.90;;;;;;4943790;29;20019;-77
2022/12/08 02:43:16;;;;;;;4.88;4.38;;;4.30;99.90;;;;;;4947041;28;20394;-77
2022/12/08 02:45:54;;;;;;;4.30;3.90;;;4.40;99.90;;;;;;4944092;29;20028;-76
2022/12/08 02:48:20;;;;;;;5.47;4.38;;;4.40;99.90;;;;;;4946545;29;20122;-77
2022/12/08 02:50:46;;;;;;;3.13;2.88;;;4.30;99.90;;;;;;4950676;29;20122;-76
2022/12/08 02:53:11;;;;;;;4.05;3.20;;;4.30;99.90;;;;;;4943110;29;20039;-76
2022/12/08 02:55:55;;;;;;;5.47;3.80;;;4.40;99.90;;;;;;4942945;29;20024;-77
2022/12/08 02:58:26;;;;;;;4.57;4.10;;;4.30;99.90;;;;;;4943985;29;20032;-77
2022/12/08 03:01:13;;;;;;;4.32;3.70;;;4.30;99.90;;;;;;4941645;29;20102;-76
2022/12/08 03:04:16;;;;;;;4.20;3.80;;;4.30;99.90;;;;;;4943350;29;20107;-76
2022/12/08 03:06:52;;;;;;;4.18;3.78;;;4.30;99.90;;;;;;4945874;29;20067;-77
2022/12/08 03:09:36;;;;;;;4.10;3.70;;;4.40;99.90;;;;;;4943239;29;20050;-77
2022/12/08 03:12:19;;;;;;;3.72;3.42;;;4.30;99.90;;;;;;4938666;29;20034;-77
2022/12/08 03:14:51;;;;;;;3.67;3.40;;;4.30;99.90;;;;;;4945260;29;20024;-77
2022/12/08 03:17:20;;;;;;;6.28;3.60;;;4.30;99.90;;;;;;4942591;28;20031;-77
2022/12/08 03:19:47;;;;;;;3.83;3.50;;;4.20;99.90;;;;;;4950048;29;20375;-77
2022/12/08 03:22:16;;;;;;;4.43;3.78;;;4.20;99.90;;;;;;4944877;29;20032;-77
2022/12/08 03:24:45;;;;;;;4.20;3.38;;;4.20;99.90;;;;;;4949544;29;20039;-77
2022/12/08 03:27:19;;;;;;;4.32;3.70;;;4.30;99.90;;;;;;4945537;29;20042;-77
2022/12/08 03:29:47;;;;;;;3.67;3.38;;;4.20;99.90;;;;;;4946513;29;20402;-76
2022/12/08 03:32:32;;;;;;;4.03;3.70;;;4.20;99.90;;;;;;4946110;28;20482;-77
2022/12/08 03:35:01;;;;;;;6.18;3.65;;;4.20;99.90;;;;;;4944081;29;20028;-77
2022/12/08 03:37:27;;;;;;;4.30;3.35;;;4.20;99.90;;;;;;4943471;28;20042;-77
2022/12/08 03:39:53;;;;;;;4.38;3.40;;;4.30;99.90;;;;;;4944873;28;20478;-77
2022/12/08 03:42:19;;;;;;;4.20;3.75;;;4.30;99.90;;;;;;4947354;29;20058;-76
2022/12/08 03:44:45;;;;;;;3.75;3.45;;;4.30;99.90;;;;;;4946276;28;20027;-76
2022/12/08 03:47:10;;;;;;;3.53;3.25;;;4.20;99.90;;;;;;4944292;28;20038;-77
2022/12/08 03:49:36;;;;;;;3.50;3.20;;;4.20;99.90;;;;;;4942672;29;20035;-77
2022/12/08 03:52:02;;;;;;;4.85;3.30;;;4.30;99.90;;;;;;4943260;29;20082;-77
2022/12/08 03:54:28;;;;;;;3.78;3.40;;;4.20;99.90;;;;;;4942122;29;20063;-77
2022/12/08 03:56:54;;;;;;;5.63;4.00;;;4.30;99.90;;;;;;4943484;29;20086;-76
2022/12/08 03:59:19;;;;;;;3.92;3.50;;;4.30;99.90;;;;;;4950015;29;20083;-77
2022/12/08 04:01:45;;;;;;;4.05;3.75;;;4.30;99.90;;;;;;4945373;29;20027;-76
2022/12/08 04:04:11;;;;;;;5.15;3.60;;;4.30;99.90;;;;;;4942376;29;20039;-76
2022/12/08 04:06:36;;;;;;;4.47;3.60;;;4.20;99.90;;;;;;4945703;29;20035;-76
2022/12/08 04:09:02;;;;;;;3.63;3.33;;;4.20;99.90;;;;;;4940821;29;20028;-77
2022/12/08 04:11:28;;;;;;;3.97;3.67;;;4.20;99.90;;;;;;4945753;29;20207;-77
2022/12/08 04:13:54;;;;;;;3.70;3.35;;;4.20;99.90;;;;;;4942465;29;20036;-77
2022/12/08 04:16:22;;;;;;;3.60;3.17;;;4.20;99.90;;;;;;4944060;29;20027;-77
2022/12/08 04:18:49;;;;;;;4.82;3.45;;;4.20;99.90;;;;;;4941220;29;20104;-77
2022/12/08 04:21:15;;;;;;;3.38;2.92;;;4.20;99.90;;;;;;4944037;29;20039;-77
2022/12/08 04:23:41;;;;;;;3.50;3.17;;;4.20;99.90;;;;;;4939680;29;20498;-77
2022/12/08 04:26:07;;;;;;;3.47;3.17;;;4.20;99.90;;;;;;4941948;29;20606;-76
2022/12/08 04:28:33;;;;;;;3.53;3.17;;;4.20;99.90;;;;;;4943239;29;20494;-77
2022/12/08 04:30:59;;;;;;;3.28;3.05;;;4.30;99.90;;;;;;4943490;28;20051;-77
2022/12/08 04:33:24;;;;;;;3.40;3.10;;;4.30;99.90;;;;;;4943892;29;20072;-77
2022/12/08 04:35:50;;;;;;;3.83;3.15;;;4.20;99.90;;;;;;4945520;29;20031;-76
2022/12/08 04:38:16;;;;;;;5.07;3.55;;;4.20;99.90;;;;;;4942862;29;20718;-76
2022/12/08 04:40:42;;;;;;;3.50;3.13;;;4.20;99.90;;;;;;4941860;29;20442;-76
2022/12/08 04:43:07;;;;;;;3.38;3.15;;;4.20;99.90;;;;;;4944508;28;20027;-76
2022/12/08 04:45:33;;;;;;;4.78;3.05;;;4.20;99.90;;;;;;4942817;29;20023;-76
2022/12/08 04:48:00;;;;;;;3.30;3.00;;;4.20;99.90;;;;;;4944101;29;20023;-77
2022/12/08 04:50:26;;;;;;;6.65;3.45;;;4.20;99.90;;;;;;4945044;28;20024;-76
2022/12/08 04:52:52;;;;;;;2.85;2.65;;;4.20;99.90;;;;;;4946320;28;20019;-76
2022/12/08 04:55:18;;;;;;;3.00;2.58;;;4.20;99.90;;;;;;4947652;29;20083;-77
2022/12/08 04:57:44;;;;;;;3.08;2.83;;;4.30;99.90;;;;;;4945554;29;20020;-76
2022/12/08 05:00:11;;;;;;;3.58;3.28;;;4.20;99.90;;;;;;4952462;29;20110;-77
2022/12/08 05:02:36;;;;;;;3.72;2.60;;;4.20;99.90;;;;;;4949001;29;20027;-77
2022/12/08 05:05:03;;;;;;;3.03;2.70;;;4.20;99.90;;;;;;4944525;29;20039;-77
2022/12/08 05:07:29;;;;;;;3.00;2.80;;;4.20;99.90;;;;;;4948395;29;20037;-76
2022/12/08 05:09:54;;;;;;;3.22;2.92;;;4.20;99.90;;;;;;4944499;29;20114;-76
2022/12/08 05:12:20;;;;;;;3.55;3.03;;;4.20;99.90;;;;;;4952778;29;20028;-76
2022/12/08 05:14:47;;;;;;;5.38;3.50;;;4.20;99.90;;;;;;4946565;29;20031;-76
2022/12/08 05:17:16;;;;;;;3.92;2.65;;;4.20;99.90;;;;;;4946552;28;20073;-77
2022/12/08 05:19:42;;;;;;;3.13;2.90;;;4.20;99.90;;;;;;4947869;29;20023;-76
2022/12/08 05:22:08;;;;;;;3.25;2.97;;;4.20;99.90;;;;;;4945140;29;20035;-76
2022/12/08 05:24:34;;;;;;;3.63;2.78;;;4.20;99.90;;;;;;4945017;29;20064;-77
2022/12/08 05:27:00;;;;;;;3.05;2.70;;;4.20;99.90;;;;;;4947065;29;20394;-77
2022/12/08 05:29:26;;;;;;;3.35;2.95;;;4.10;99.90;;;;;;4946511;28;20078;-77
2022/12/08 05:31:51;;;;;;;2.95;2.72;;;4.10;99.90;;;;;;4946525;29;20060;-76
2022/12/08 05:34:17;;;;;;;2.80;2.60;;;4.10;99.90;;;;;;4947187;28;20110;-77
2022/12/08 05:36:43;;;;;;;3.30;2.58;;;4.10;99.90;;;;;;4945912;29;20031;-77
2022/12/08 05:39:12;;;;;;;3.25;2.70;;;4.10;99.90;;;;;;4947042;28;20038;-77
2022/12/08 05:41:38;;;;;;;3.90;2.67;;;4.10;99.90;;;;;;4948000;29;20509;-77
2022/12/08 05:44:05;;;;;;;3.13;2.85;;;4.10;99.90;;;;;;4948014;28;20028;-77
2022/12/08 05:46:30;;;;;;;3.50;2.92;;;4.10;99.90;;;;;;4946206;29;20027;-77
2022/12/08 05:48:59;;;;;;;5.70;3.40;;;4.10;99.90;;;;;;4948338;28;20027;-76
2022/12/08 05:51:25;;;;;;;3.22;2.95;;;4.00;99.90;;;;;;4945548;29;20020;-77
2022/12/08 05:53:52;;;;;;;4.00;2.70;;;4.00;99.90;;;;;;4948015;28;20020;-77
2022/12/08 05:56:18;;;;;;;3.85;2.90;;;4.00;99.90;;;;;;4947922;28;20015;-77
2022/12/08 05:58:44;;;;;;;3.17;2.88;;;4.00;99.90;;;;;;4943710;29;20032;-77
2022/12/08 06:01:30;;;;;;;2.90;2.70;;;4.00;99.90;;;;;;4954756;29;20035;-77
2022/12/08 06:03:57;;;;;;;3.50;3.20;;;4.00;99.90;;;;;;4946565;28;20028;-77
2022/12/08 06:06:23;;;;;;;2.97;2.78;;;4.00;99.90;;;;;;4945751;28;20035;-76
2022/12/08 06:08:49;;;;;;;3.53;3.22;;;4.10;99.90;;;;;;4946502;29;20090;-76
2022/12/08 06:11:22;;;;;;;3.45;3.15;;;4.10;99.90;;;;;;4944475;29;20028;-77
2022/12/08 06:13:49;;;;;;;3.13;2.85;;;4.10;99.90;;;;;;4954177;29;20023;-77
2022/12/08 06:16:15;;;;;;;3.28;2.90;;;4.10;99.90;;;;;;4945379;28;20023;-76
2022/12/08 06:18:41;;;;;;;3.47;3.17;;;4.10;99.90;;;;;;4945397;29;20032;-76
2022/12/08 06:21:09;;;;;;;3.60;2.90;;;4.10;99.90;;;;;;4945499;29;20027;-76
2022/12/08 06:23:35;;;;;;;3.85;2.80;;;4.10;99.90;;;;;;4944127;29;20034;-76
2022/12/08 06:26:09;;;;;;;3.28;2.97;;;4.00;99.90;;;;;;4944719;29;20413;-77
2022/12/08 06:28:35;;;;;;;4.53;3.42;;;4.00;99.90;;;;;;4943105;29;20505;-77
2022/12/08 06:31:15;;;;;;;3.92;3.13;;;4.00;99.90;;;;;;4950653;29;20106;-76
2022/12/08 06:33:41;;;;;;;3.42;3.13;;;4.00;99.90;;;;;;4943236;29;20032;-77
2022/12/08 06:36:07;;;;;;;3.20;2.90;;;4.00;99.90;;;;;;4945862;29;20030;-77
2022/12/08 06:38:33;;;;;;;3.55;3.25;;;4.00;99.90;;;;;;4943848;29;20035;-77
2022/12/08 06:40:59;;;;;;;3.15;2.95;;;4.00;99.90;;;;;;4947199;28;20047;-77
2022/12/08 06:43:26;;;;;;;3.38;3.17;;;4.10;99.90;;;;;;4943887;29;20112;-77
2022/12/08 06:45:52;;;;;;;4.68;3.17;;;4.10;99.90;;;;;;4947089;29;20043;-76
2022/12/08 06:48:18;;;;;;;3.35;3.05;;;4.00;99.90;;;;;;4943760;28;20042;-77
2022/12/08 06:50:44;;;;;;;3.90;3.58;;;4.10;99.90;;;;;;4946601;29;20032;-76
2022/12/08 06:53:11;;;;;;;3.35;3.05;;;4.00;99.90;;;;;;4944015;28;20050;-76
2022/12/08 06:55:45;;;;;;;6.28;3.40;;;4.00;99.90;;;;;;4945201;29;20023;-77
2022/12/08 06:58:13;;;;;;;3.30;3.10;;;4.00;99.90;;;;;;4949788;29;20023;-77
2022/12/08 07:00:40;;;;;;;4.43;3.25;;;4.00;99.90;;;;;;4943373;29;20071;-77
2022/12/08 07:03:07;;;;;;;2.78;2.58;;;4.00;99.90;;;;;;4942149;29;20111;-76
2022/12/08 07:05:34;;;;;;;4.72;3.13;;;4.00;99.90;;;;;;4943364;29;20034;-77
2022/12/08 07:08:00;;;;;;;3.75;3.40;;;4.00;99.90;;;;;;4941844;29;20031;-76
2022/12/08 07:10:26;;;;;;;3.42;3.13;;;4.10;99.90;;;;;;4953092;29;20034;-77
2022/12/08 07:12:53;;;;;;;3.92;3.50;;;4.10;99.90;;;;;;4943443;28;20422;-77
2022/12/08 07:15:19;;;;;;;4.82;3.42;;;4.10;99.90;;;;;;4944302;29;20032;-76
2022/12/08 07:17:46;;;;;;;3.38;3.08;;;4.20;99.90;;;;;;4950078;29;20390;-77
2022/12/08 07:20:12;;;;;;;3.00;2.72;;;4.20;99.90;;;;;;4944575;29;20037;-77
2022/12/08 07:22:38;;;;;;;3.58;3.28;;;4.20;99.90;;;;;;4940447;28;20486;-77
2022/12/08 07:25:04;;;;;;;6.32;3.80;;;4.10;99.90;;;;;;4951262;29;20027;-76
2022/12/08 07:27:30;;;;;;;4.57;3.47;;;4.10;99.90;;;;;;4943993;28;20110;-77
2022/12/08 07:29:56;;;;;;;3.10;2.88;;;4.20;99.90;;;;;;4951733;29;20111;-77
2022/12/08 07:32:22;;;;;;;5.07;3.20;;;4.20;99.90;;;;;;4943262;29;20033;-77
2022/12/08 07:34:47;;;;;;;3.13;2.67;;;4.20;99.90;;;;;;4944445;29;20020;-76
2022/12/08 07:37:13;;;;;;;4.55;3.67;;;4.20;99.90;;;;;;4944882;28;20023;-76
2022/12/08 07:39:39;;;;;;;4.22;3.83;;;4.20;99.90;;;;;;4945146;29;20055;-77
2022/12/08 07:42:04;;;;;;;3.13;2.92;;;4.20;99.90;;;;;;4943588;29;20051;-77
2022/12/08 07:44:30;;;;;;;6.70;3.50;;;4.10;99.90;;;;;;4945586;28;20043;-76
2022/12/08 07:46:56;;;;;;;3.53;3.13;;;4.20;99.90;;;;;;4943148;29;20115;-77
2022/12/08 07:49:21;;;;;;;3.00;2.80;;;4.20;99.90;;;;;;4945981;29;20478;-76
2022/12/08 07:51:48;;;;;;;3.30;3.00;;;4.20;99.90;;;;;;4945577;29;20023;-77
2022/12/08 07:54:13;;;;;;;3.60;3.30;;;4.30;99.90;;;;;;4946089;28;20031;-76
2022/12/08 07:56:39;;;;;;;5.72;3.80;;;4.30;99.90;;;;;;4949422;29;20545;-77
2022/12/08 07:59:05;;;;;;;6.13;3.53;;;4.30;99.90;;;;;;4946292;29;20032;-77
2022/12/08 08:01:32;;;;;;;3.00;2.70;;;4.40;99.90;;;;;;4945459;29;20036;-76
2022/12/08 08:04:00;;;;;;;3.47;3.25;;;4.30;99.90;;;;;;4941469;29;20054;-77
2022/12/08 08:06:27;;;;;;;3.78;3.08;;;4.40;99.90;;;;;;4945532;29;20062;-76
2022/12/08 08:08:52;;;;;;;3.22;2.97;;;4.40;99.90;;;;;;4942906;28;20462;-76
2022/12/08 08:11:18;;;;;;;3.88;3.58;;;4.40;99.90;;;;;;4943663;29;20054;-77
2022/12/08 08:13:44;;;;;;;3.90;3.60;;;4.50;99.90;;;;;;4943467;28;20062;-77
2022/12/08 08:16:12;;;;;;;3.72;3.30;;;4.50;99.90;;;;;;4944562;29;20120;-76
2022/12/08 08:18:38;;;;;;;5.13;3.78;;;4.60;99.90;;;;;;4942156;29;20054;-77
2022/12/08 08:21:04;;;;;;;3.38;3.05;;;4.70;99.90;;;;;;4944339;29;20397;-77
2022/12/08 08:23:30;;;;;;;4.00;3.08;;;4.70;99.90;;;;;;4946426;29;20027;-77
2022/12/08 08:26:01;;;;;;;6.55;3.63;;;4.80;99.90;;;;;;4942097;29;20027;-77
2022/12/08 08:28:27;;;;;;;3.90;3.50;;;4.80;99.90;;;;;;4947853;29;20024;-77
2022/12/08 08:30:53;;;;;;;6.18;4.75;;;4.80;99.90;;;;;;4946152;29;20090;-77
2022/12/08 08:33:19;;;;;;;6.20;3.80;;;4.90;99.90;;;;;;4947782;29;20032;-77
2022/12/08 08:35:44;;;;;;;3.55;3.22;;;4.90;99.90;;;;;;4947982;29;20027;-76
2022/12/08 08:38:10;;;;;;;4.75;3.60;;;4.90;99.90;;;;;;4945963;29;20028;-76
2022/12/08 08:40:36;;;;;;;3.90;3.60;;;5.00;99.90;;;;;;4947995;29;20027;-77
2022/12/08 08:43:02;;;;;;;6.45;4.43;;;5.00;99.90;;;;;;4946581;29;20028;-76
2022/12/08 08:45:28;;;;;;;5.97;4.78;;;5.00;99.90;;;;;;4953012;29;20397;-77
2022/12/08 08:47:54;;;;;;;5.88;3.80;;;5.10;99.90;;;;;;4958406;28;20023;-77
2022/12/08 08:50:19;;;;;;;3.60;3.30;;;5.20;99.90;;;;;;4954060;29;20505;-77
2022/12/08 08:52:45;;;;;;;4.03;3.25;;;5.20;99.90;;;;;;4954167;29;20027;-76
2022/12/08 08:55:11;;;;;;;5.90;3.22;;;5.30;99.90;;;;;;4957405;29;20031;-76
2022/12/08 08:57:36;;;;;;;4.05;3.75;;;5.30;99.90;;;;;;4956097;29;20030;-76
2022/12/08 09:00:04;;;;;;;4.03;3.63;;;5.40;99.90;;;;;;4956569;29;20027;-77
2022/12/08 09:02:30;;;;;;;4.53;3.65;;;5.40;99.90;;;;;;4950819;28;20035;-77
2022/12/08 09:04:56;;;;;;;4.25;3.25;;;5.50;99.90;;;;;;4941224;29;20621;-76
2022/12/08 09:07:21;;;;;;;4.50;3.80;;;5.60;99.90;;;;;;4938814;29;20024;-77
2022/12/08 09:09:47;;;;;;;4.35;3.80;;;5.70;99.90;;;;;;4953235;29;20028;-76
2022/12/08 09:12:13;;;;;;;4.10;3.80;;;5.70;99.90;;;;;;4943477;29;20019;-76
2022/12/08 09:14:39;;;;;;;4.57;3.75;;;5.80;99.90;;;;;;4955780;29;20035;-77
2022/12/08 09:17:07;;;;;;;5.05;3.80;;;5.90;99.90;;;;;;4956474;29;20030;-76
2022/12/08 09:19:33;;;;;;;5.32;4.22;;;5.90;99.90;;;;;;4957881;28;20039;-76
2022/12/08 09:21:59;;;;;;;4.53;4.15;;;6.00;99.90;;;;;;4955979;29;20089;-77
2022/12/08 09:24:25;;;;;;;5.10;4.15;;;6.00;99.90;;;;;;4938590;29;20031;-77
2022/12/08 09:26:50;;;;;;;4.82;4.25;;;6.00;99.90;;;;;;4953878;29;20023;-77
2022/12/08 09:29:16;;;;;;;9.52;4.40;;;6.00;99.90;;;;;;4938243;29;20032;-77
2022/12/08 09:31:42;;;;;;;6.32;4.10;;;6.00;99.90;;;;;;4938485;29;20485;-76
2022/12/08 09:34:10;;;;;;;4.78;4.38;;;6.00;99.90;;;;;;4937017;29;20028;-77
2022/12/08 09:36:36;;;;;;;4.60;4.20;;;5.90;99.90;;;;;;4938358;29;20102;-77
2022/12/08 09:39:01;;;;;;;8.43;4.25;;;5.90;99.90;;;;;;4936316;29;20491;-77
2022/12/08 09:41:32;;;;;;;5.78;4.28;;;5.90;99.90;;;;;;4938199;29;20593;-76
2022/12/08 09:44:39;;;;;;;5.05;3.95;;;6.00;99.90;;;;;;4949063;29;20031;-77
2022/12/08 09:47:17;;;;;;;4.28;3.90;;;6.00;99.90;;;;;;4956034;29;20046;-77
2022/12/08 09:49:53;;;;;;;7.50;4.40;;;6.00;99.90;;;;;;4944933;29;20032;-77
2022/12/08 09:52:46;;;;;;;4.72;4.32;;;6.00;99.90;;;;;;4954076;29;20485;-77
2022/12/08 09:55:24;;;;;;;4.85;3.97;;;6.00;99.90;;;;;;4954173;29;20090;-77
2022/12/08 09:57:58;;;;;;;10.15;5.22;;;6.00;99.90;;;;;;4957140;28;20509;-77
2022/12/08 10:00:24;;;;;;;10.13;5.65;;;6.00;99.90;;;;;;4957238;28;20031;-77
2022/12/08 10:02:50;;;;;;;6.30;5.32;;;6.10;99.90;;;;;;4955677;29;20035;-77
2022/12/08 10:05:16;;;;;;;4.95;4.30;;;6.10;99.90;;;;;;4936284;28;20047;-76
2022/12/08 10:07:52;;;;;;;8.43;5.28;;;6.20;99.90;;;;;;4956896;29;20170;-77
2022/12/08 10:10:47;;;;;;;11.38;7.18;;;6.20;99.90;;;;;;4961618;28;20069;-77
2022/12/08 10:13:37;;;;;;;15.00;10.75;;;6.30;99.90;;;;;;4975893;28;20034;-77
2022/12/08 10:16:17;;;;;;;13.30;8.35;;;6.30;99.90;;;;;;4962698;28;20026;-77
2022/12/08 10:18:43;;;;;;;22.27;13.20;;;6.40;99.90;;;;;;4955770;28;20055;-77
2022/12/08 10:21:19;;;;;;;17.60;11.85;;;6.50;99.90;;;;;;4954831;29;20038;-77
2022/12/08 10:23:52;;;;;;;16.55;11.45;;;6.50;99.90;;;;;;4972395;28;20088;-77
2022/12/08 10:26:20;;;;;;;16.75;10.90;;;6.60;99.90;;;;;;4969588;28;20060;-77
2022/12/08 10:28:46;;;;;;;18.13;11.65;;;6.60;99.90;;;;;;4940407;29;20090;-77
2022/12/08 10:31:21;;;;;;;13.80;10.90;;;6.70;99.90;;;;;;4955649;29;20023;-77
2022/12/08 10:34:00;;;;;;;13.95;10.23;;;6.70;99.90;;;;;;4950631;29;20548;-77
2022/12/08 10:36:45;;;;;;;13.77;10.30;;;6.80;99.90;;;;;;4946928;29;20023;-77
2022/12/08 10:39:34;;;;;;;13.95;10.45;;;6.90;99.90;;;;;;4942580;29;20023;-77
2022/12/08 10:42:21;;;;;;;17.60;10.65;;;7.00;99.90;;;;;;4947204;29;20114;-77
2022/12/08 10:44:52;;;;;;;14.68;10.90;;;7.00;99.90;;;;;;4935709;29;20066;-77
2022/12/08 10:47:22;;;;;;;15.83;11.33;;;7.10;99.90;;;;;;4967726;28;20123;-77
2022/12/08 10:50:06;;;;;;;19.20;11.40;;;7.20;99.90;;;;;;4951241;28;20098;-76
2022/12/08 10:52:37;;;;;;;15.15;10.73;;;7.20;99.90;;;;;;4947085;29;20028;-76
2022/12/08 10:55:12;;;;;;;13.40;8.75;;;7.30;99.90;;;;;;4936636;29;20367;-77
2022/12/08 10:57:37;;;;;;;14.88;9.75;;;7.40;99.90;;;;;;4944270;29;20030;-76
2022/12/08 11:00:05;;;;;;;12.05;8.40;;;7.40;99.90;;;;;;4937057;29;20486;-77
2022/12/08 11:02:30;;;;;;;14.63;8.90;;;7.50;99.90;;;;;;4935432;29;20445;-77
2022/12/08 11:05:00;;;;;;;10.25;7.78;;;7.60;99.90;;;;;;4950123;29;20126;-77
2022/12/08 11:07:27;;;;;;;10.95;8.20;;;7.60;99.90;;;;;;4954299;29;20565;-78
2022/12/08 11:09:57;;;;;;;13.68;8.35;;;7.70;99.90;;;;;;4947034;29;20062;-78
2022/12/08 11:12:28;;;;;;;9.63;7.95;;;7.80;99.90;;;;;;4951182;29;20032;-77
2022/12/08 11:15:00;;;;;;;12.45;8.50;;;7.90;99.90;;;;;;4935239;29;20027;-77
2022/12/08 11:17:28;;;;;;;10.73;8.00;;;7.90;99.90;;;;;;4944724;29;20028;-76
2022/12/08 11:20:21;;;;;;;11.73;7.45;;;7.90;99.90;;;;;;4935021;29;20114;-77
2022/12/08 11:22:54;;;;;;;8.43;6.82;;;8.00;99.90;;;;;;4944467;29;20031;-77
2022/12/08 11:25:23;;;;;;;12.55;8.13;;;8.10;99.90;;;;;;4942528;29;20066;-77
2022/12/08 11:27:52;;;;;;;14.18;9.65;;;8.10;99.90;;;;;;4937252;29;20051;-77
2022/12/08 11:30:18;;;;;;;16.00;9.82;;;8.20;99.90;;;;;;4934840;29;20455;-76
2022/12/08 11:32:45;;;;;;;15.35;11.23;;;8.10;99.90;;;;;;4944303;29;20032;-77
2022/12/08 11:35:31;;;;;;;13.63;10.95;;;8.10;99.90;;;;;;4939594;29;20103;-77
2022/12/08 11:38:20;;;;;;;17.15;10.93;;;8.20;99.90;;;;;;4937071;29;20024;-77
2022/12/08 11:40:49;;;;;;;18.48;11.85;;;8.20;99.90;;;;;;4977926;28;20138;-77
2022/12/08 11:43:27;;;;;;;14.98;11.07;;;8.20;99.90;;;;;;4940598;29;20062;-77
2022/12/08 11:46:01;;;;;;;15.43;10.20;;;8.20;99.90;;;;;;4945543;29;20109;-77
2022/12/08 11:48:37;;;;;;;11.43;9.82;;;8.20;99.90;;;;;;4949881;28;20047;-77
2022/12/08 11:51:15;;;;;;;14.60;9.70;;;8.30;99.90;;;;;;4958051;28;20748;-77
2022/12/08 11:54:10;;;;;;;15.50;9.65;;;8.30;99.90;;;;;;4947480;28;20616;-77
2022/12/08 11:56:45;;;;;;;13.77;10.30;;;8.40;99.90;;;;;;4967486;28;20100;-77
2022/12/08 11:59:38;;;;;;;9.88;8.57;;;8.40;99.90;;;;;;4967824;28;20267;-77
2022/12/08 12:02:05;;;;;;;11.30;8.57;;;8.40;99.90;;;;;;4968980;28;20392;-77
2022/12/08 12:04:43;;;;;;;12.85;8.55;;;8.40;99.90;;;;;;4959217;28;20124;-76
2022/12/08 12:07:50;;;;;;;13.93;8.90;;;8.40;99.90;;;;;;4951072;29;20035;-77
2022/12/08 12:10:16;;;;;;;8.52;7.53;;;8.40;99.90;;;;;;4954807;28;20038;-76
2022/12/08 12:13:19;;;;;;;11.10;7.05;;;8.40;99.90;;;;;;4962636;28;20113;-77
2022/12/08 12:15:59;;;;;;;12.40;7.78;;;8.40;99.90;;;;;;4964005;28;20030;-77
2022/12/08 12:18:39;;;;;;;12.70;7.80;;;8.40;99.90;;;;;;4964987;28;20685;-76
2022/12/08 12:21:09;;;;;;;15.35;9.70;;;8.40;99.90;;;;;;4953941;28;20458;-76
2022/12/08 12:23:52;;;;;;;11.63;9.23;;;8.40;99.90;;;;;;4962582;28;20390;-77
2022/12/08 12:26:19;;;;;;;;;;;8.40;99.90;;;;;;4966816;28;20027;-77
2022/12/08 12:29:02;;;;;;;12.90;8.73;;;8.40;99.90;;;;;;4964498;28;20529;-77
2022/12/08 12:31:40;;;;;;;17.27;9.43;;;8.40;99.90;;;;;;4965043;28;20023;-76
2022/12/08 12:34:28;;;;;;;12.80;10.13;;;8.30;99.90;;;;;;4958061;28;20030;-77
2022/12/08 12:37:02;;;;;;;11.10;8.63;;;8.40;99.90;;;;;;4963569;28;20031;-77
2022/12/08 12:39:32;;;;;;;12.23;10.02;;;8.40;99.90;;;;;;4964930;28;20019;-76
2022/12/08 12:42:01;;;;;;;15.27;9.65;;;8.40;99.90;;;;;;4970657;28;20129;-76
2022/12/08 12:44:27;;;;;;;14.98;9.05;;;8.40;99.90;;;;;;4967826;28;20034;-77
2022/12/08 12:46:56;;;;;;;11.85;9.48;;;8.40;99.90;;;;;;4971300;28;20026;-77
2022/12/08 12:49:42;;;;;;;10.68;8.48;;;8.40;99.90;;;;;;4964496;28;20647;-76
2022/12/08 12:52:14;;;;;;;10.10;9.10;;;8.40;99.90;;;;;;4954023;28;20031;-77
2022/12/08 12:55:04;;;;;;;9.95;7.88;;;8.40;99.90;;;;;;4969175;28;20034;-76
2022/12/08 12:57:37;;;;;;;12.70;7.97;;;8.40;99.90;;;;;;4937628;28;20509;-77
2022/12/08 13:00:03;;;;;;;12.73;8.48;;;8.40;99.90;;;;;;4963391;28;20035;-77
2022/12/08 13:02:35;;;;;;;9.30;8.07;;;8.40;99.90;;;;;;4963662;28;20094;-77
2022/12/08 13:05:26;;;;;;;13.60;10.07;;;8.50;99.90;;;;;;4959270;28;20023;-77
2022/12/08 13:07:59;;;;;;;15.48;10.35;;;8.50;99.90;;;;;;4963251;28;20264;-77
2022/12/08 13:10:30;;;;;;;13.15;10.82;;;8.50;99.90;;;;;;4963077;28;20019;-77
2022/12/08 13:13:13;;;;;;;15.27;11.03;;;8.40;99.90;;;;;;4961317;28;20450;-77
2022/12/08 13:15:59;;;;;;;13.40;10.48;;;8.40;99.90;;;;;;4954738;29;20828;-76